Main page
METAR-TAF:

METAR-TAF

Airports :

Verona Villafranca Airport

Verona, Italy

latitude: 45-23N, longitude: 010-52E, elevation: 67 m

Current weather observation

The report was made 21 minutes ago, at 07:50 UTC
Wind 1 kt from variable directions
Temperature 21°C
Humidity 83%
Pressure 1016 hPa
Visibility: 5000 m
mist

METAR: LIPX 220750Z VRB01KT 5000 BR NSC 21/18 Q1016

Time: 10:11 (08:11 UTC)

Forecast

The report was made 3 hours and 11 minutes ago, at 05:00 UTC
Forecast valid from 22 at 06 UTC to 22 at 15 UTC
Wind 5 kt from variable directions
Visibility 10 km or more
Scattered clouds at a height of 6000 ft

TAF: LIPX 220500Z 2206/2215 VRB05KT 9999 SCT060

Weather observations and forecasts of more than 4000 airports (METAR and TAF reports).

The available stations are represented by yellow and red dots on the map.

Hover mouse over dot to see the name of the station.

Then click to see weather observations and forecasts.

To change the map : click on the green buttons with a black cross to zoom in, on the green button with a dash to zoom out, or on the green arrows for adjacent maps.


METAR-TAF: